sensor_id;sensor_type;location;lat;lon;timestamp;P1;durP1;ratioP1;P2;durP2;ratioP2
35648;SDS011;21768;48.562;13.414;2023-08-24T00:00:40;8.75;;;7.10;;
35648;SDS011;21768;48.562;13.414;2023-08-24T00:03:06;9.63;;;6.90;;
35648;SDS011;21768;48.562;13.414;2023-08-24T00:05:33;16.52;;;6.65;;
35648;SDS011;21768;48.562;13.414;2023-08-24T00:08:01;12.95;;;6.90;;
35648;SDS011;21768;48.562;13.414;2023-08-24T00:10:30;11.38;;;6.85;;
35648;SDS011;21768;48.562;13.414;2023-08-24T00:12:55;15.38;;;6.82;;
35648;SDS011;21768;48.562;13.414;2023-08-24T00:15:21;13.88;;;7.13;;
35648;SDS011;21768;48.562;13.414;2023-08-24T00:17:46;19.35;;;7.55;;
35648;SDS011;21768;48.562;13.414;2023-08-24T00:20:12;12.48;;;6.28;;
35648;SDS011;21768;48.562;13.414;2023-08-24T00:22:38;18.83;;;6.75;;
35648;SDS011;21768;48.562;13.414;2023-08-24T00:25:04;16.80;;;7.28;;
35648;SDS011;21768;48.562;13.414;2023-08-24T00:27:31;12.57;;;6.57;;
35648;SDS011;21768;48.562;13.414;2023-08-24T00:29:57;14.55;;;7.07;;
35648;SDS011;21768;48.562;13.414;2023-08-24T00:32:23;19.05;;;6.82;;
35648;SDS011;21768;48.562;13.414;2023-08-24T00:34:48;10.75;;;6.75;;
35648;SDS011;21768;48.562;13.414;2023-08-24T00:37:13;15.82;;;6.97;;
35648;SDS011;21768;48.562;13.414;2023-08-24T00:39:39;9.18;;;6.65;;
35648;SDS011;21768;48.562;13.414;2023-08-24T00:42:04;17.45;;;7.60;;
35648;SDS011;21768;48.562;13.414;2023-08-24T00:44:30;15.65;;;7.13;;
35648;SDS011;21768;48.562;13.414;2023-08-24T00:46:56;11.57;;;6.63;;
35648;SDS011;21768;48.562;13.414;2023-08-24T00:49:23;12.40;;;6.47;;
35648;SDS011;21768;48.562;13.414;2023-08-24T00:51:49;12.35;;;6.70;;
35648;SDS011;21768;48.562;13.414;2023-08-24T00:54:15;12.50;;;7.22;;
35648;SDS011;21768;48.562;13.414;2023-08-24T00:56:41;16.45;;;7.18;;
35648;SDS011;21768;48.562;13.414;2023-08-24T00:59:06;11.80;;;6.93;;
35648;SDS011;21768;48.562;13.414;2023-08-24T01:01:32;12.20;;;6.70;;
35648;SDS011;21768;48.562;13.414;2023-08-24T01:03:58;13.45;;;7.00;;
35648;SDS011;21768;48.562;13.414;2023-08-24T01:06:24;11.90;;;6.97;;
35648;SDS011;21768;48.562;13.414;2023-08-24T01:08:49;13.07;;;6.80;;
35648;SDS011;21768;48.562;13.414;2023-08-24T01:11:21;12.90;;;6.63;;
35648;SDS011;21768;48.562;13.414;2023-08-24T01:16:33;10.43;;;6.82;;
35648;SDS011;21768;48.562;13.414;2023-08-24T01:19:01;8.07;;;6.45;;
35648;SDS011;21768;48.562;13.414;2023-08-24T01:21:28;13.32;;;6.65;;
35648;SDS011;21768;48.562;13.414;2023-08-24T01:24:13;12.68;;;6.35;;
35648;SDS011;21768;48.562;13.414;2023-08-24T01:26:42;17.80;;;6.57;;
35648;SDS011;21768;48.562;13.414;2023-08-24T01:29:09;11.32;;;6.80;;
35648;SDS011;21768;48.562;13.414;2023-08-24T01:31:35;12.88;;;6.13;;
35648;SDS011;21768;48.562;13.414;2023-08-24T01:34:01;14.65;;;6.65;;
35648;SDS011;21768;48.562;13.414;2023-08-24T01:36:26;13.48;;;7.07;;
35648;SDS011;21768;48.562;13.414;2023-08-24T01:39:06;14.40;;;6.60;;
35648;SDS011;21768;48.562;13.414;2023-08-24T01:41:39;8.73;;;6.55;;
35648;SDS011;21768;48.562;13.414;2023-08-24T01:44:08;13.38;;;6.68;;
35648;SDS011;21768;48.562;13.414;2023-08-24T01:46:37;10.43;;;6.65;;
35648;SDS011;21768;48.562;13.414;2023-08-24T01:49:04;9.48;;;6.60;;
35648;SDS011;21768;48.562;13.414;2023-08-24T01:51:32;13.65;;;6.60;;
35648;SDS011;21768;48.562;13.414;2023-08-24T01:53:59;10.98;;;6.43;;
35648;SDS011;21768;48.562;13.414;2023-08-24T01:56:25;9.55;;;6.57;;
35648;SDS011;21768;48.562;13.414;2023-08-24T01:58:51;11.52;;;5.93;;
35648;SDS011;21768;48.562;13.414;2023-08-24T02:01:16;19.17;;;6.63;;
35648;SDS011;21768;48.562;13.414;2023-08-24T02:03:42;15.10;;;6.63;;
35648;SDS011;21768;48.562;13.414;2023-08-24T02:06:07;21.52;;;7.10;;
35648;SDS011;21768;48.562;13.414;2023-08-24T02:08:33;15.18;;;6.72;;
35648;SDS011;21768;48.562;13.414;2023-08-24T02:10:59;13.65;;;6.75;;
35648;SDS011;21768;48.562;13.414;2023-08-24T02:13:24;10.98;;;6.50;;
35648;SDS011;21768;48.562;13.414;2023-08-24T02:15:50;14.02;;;7.32;;
35648;SDS011;21768;48.562;13.414;2023-08-24T02:18:15;10.52;;;6.95;;
35648;SDS011;21768;48.562;13.414;2023-08-24T02:20:40;11.77;;;6.85;;
35648;SDS011;21768;48.562;13.414;2023-08-24T02:23:06;9.98;;;6.63;;
35648;SDS011;21768;48.562;13.414;2023-08-24T02:25:31;13.45;;;6.93;;
35648;SDS011;21768;48.562;13.414;2023-08-24T02:27:58;10.93;;;8.02;;
35648;SDS011;21768;48.562;13.414;2023-08-24T02:30:23;16.17;;;7.35;;
35648;SDS011;21768;48.562;13.414;2023-08-24T02:32:49;10.00;;;7.00;;
35648;SDS011;21768;48.562;13.414;2023-08-24T02:35:15;11.05;;;6.75;;
35648;SDS011;21768;48.562;13.414;2023-08-24T02:37:41;10.07;;;7.05;;
35648;SDS011;21768;48.562;13.414;2023-08-24T02:40:06;22.70;;;7.60;;
35648;SDS011;21768;48.562;13.414;2023-08-24T02:42:34;14.52;;;7.43;;
35648;SDS011;21768;48.562;13.414;2023-08-24T02:45:00;16.58;;;7.07;;
35648;SDS011;21768;48.562;13.414;2023-08-24T02:47:25;12.73;;;6.95;;
35648;SDS011;21768;48.562;13.414;2023-08-24T02:49:50;7.75;;;6.80;;
35648;SDS011;21768;48.562;13.414;2023-08-24T02:52:16;11.98;;;6.72;;
35648;SDS011;21768;48.562;13.414;2023-08-24T02:54:42;14.27;;;7.28;;
35648;SDS011;21768;48.562;13.414;2023-08-24T02:57:07;11.07;;;7.30;;
35648;SDS011;21768;48.562;13.414;2023-08-24T02:59:33;10.85;;;7.25;;
35648;SDS011;21768;48.562;13.414;2023-08-24T03:01:58;12.68;;;7.32;;
35648;SDS011;21768;48.562;13.414;2023-08-24T03:04:23;11.13;;;7.40;;
35648;SDS011;21768;48.562;13.414;2023-08-24T03:06:49;16.42;;;7.40;;
35648;SDS011;21768;48.562;13.414;2023-08-24T03:09:15;14.95;;;7.70;;
35648;SDS011;21768;48.562;13.414;2023-08-24T03:11:40;13.60;;;7.32;;
35648;SDS011;21768;48.562;13.414;2023-08-24T03:14:06;11.77;;;7.80;;
35648;SDS011;21768;48.562;13.414;2023-08-24T03:16:31;12.10;;;7.10;;
35648;SDS011;21768;48.562;13.414;2023-08-24T03:18:57;11.13;;;7.30;;
35648;SDS011;21768;48.562;13.414;2023-08-24T03:21:23;20.50;;;8.00;;
35648;SDS011;21768;48.562;13.414;2023-08-24T03:23:49;13.18;;;7.28;;
35648;SDS011;21768;48.562;13.414;2023-08-24T03:26:14;12.05;;;7.20;;
35648;SDS011;21768;48.562;13.414;2023-08-24T03:28:41;19.60;;;8.68;;
35648;SDS011;21768;48.562;13.414;2023-08-24T03:31:06;14.45;;;7.78;;
35648;SDS011;21768;48.562;13.414;2023-08-24T03:33:32;11.80;;;8.32;;
35648;SDS011;21768;48.562;13.414;2023-08-24T03:35:59;16.33;;;8.25;;
35648;SDS011;21768;48.562;13.414;2023-08-24T03:38:25;14.60;;;7.45;;
35648;SDS011;21768;48.562;13.414;2023-08-24T03:40:50;17.30;;;8.07;;
35648;SDS011;21768;48.562;13.414;2023-08-24T03:43:16;15.20;;;7.88;;
35648;SDS011;21768;48.562;13.414;2023-08-24T03:45:41;13.70;;;7.70;;
35648;SDS011;21768;48.562;13.414;2023-08-24T03:48:08;21.65;;;13.23;;
35648;SDS011;21768;48.562;13.414;2023-08-24T03:50:33;15.93;;;9.60;;
35648;SDS011;21768;48.562;13.414;2023-08-24T03:52:58;15.50;;;7.78;;
35648;SDS011;21768;48.562;13.414;2023-08-24T03:55:24;11.73;;;7.47;;
35648;SDS011;21768;48.562;13.414;2023-08-24T03:57:49;15.52;;;7.45;;
35648;SDS011;21768;48.562;13.414;2023-08-24T04:00:16;10.90;;;7.30;;
35648;SDS011;21768;48.562;13.414;2023-08-24T04:02:42;14.48;;;7.30;;
35648;SDS011;21768;48.562;13.414;2023-08-24T04:05:07;16.05;;;7.53;;
35648;SDS011;21768;48.562;13.414;2023-08-24T04:07:33;10.55;;;7.68;;
35648;SDS011;21768;48.562;13.414;2023-08-24T04:10:01;10.20;;;6.95;;
35648;SDS011;21768;48.562;13.414;2023-08-24T04:12:29;12.07;;;7.28;;
35648;SDS011;21768;48.562;13.414;2023-08-24T04:14:55;15.98;;;7.53;;
35648;SDS011;21768;48.562;13.414;2023-08-24T04:17:22;11.05;;;7.32;;
35648;SDS011;21768;48.562;13.414;2023-08-24T04:19:48;13.65;;;7.05;;
35648;SDS011;21768;48.562;13.414;2023-08-24T04:22:13;12.80;;;7.78;;
35648;SDS011;21768;48.562;13.414;2023-08-24T04:24:39;14.68;;;8.02;;
35648;SDS011;21768;48.562;13.414;2023-08-24T04:27:04;9.57;;;7.45;;
35648;SDS011;21768;48.562;13.414;2023-08-24T04:29:29;17.15;;;11.25;;
35648;SDS011;21768;48.562;13.414;2023-08-24T04:31:55;14.15;;;7.13;;
35648;SDS011;21768;48.562;13.414;2023-08-24T04:34:20;12.48;;;7.43;;
35648;SDS011;21768;48.562;13.414;2023-08-24T04:36:45;11.30;;;6.57;;
35648;SDS011;21768;48.562;13.414;2023-08-24T04:39:11;11.48;;;7.18;;
35648;SDS011;21768;48.562;13.414;2023-08-24T04:41:36;11.27;;;7.68;;
35648;SDS011;21768;48.562;13.414;2023-08-24T04:44:01;13.63;;;7.93;;
35648;SDS011;21768;48.562;13.414;2023-08-24T04:46:27;14.93;;;8.02;;
35648;SDS011;21768;48.562;13.414;2023-08-24T04:48:52;10.48;;;7.30;;
35648;SDS011;21768;48.562;13.414;2023-08-24T04:51:18;12.80;;;6.95;;
35648;SDS011;21768;48.562;13.414;2023-08-24T04:53:43;17.38;;;7.10;;
35648;SDS011;21768;48.562;13.414;2023-08-24T04:56:08;17.70;;;7.70;;
35648;SDS011;21768;48.562;13.414;2023-08-24T04:58:34;10.40;;;7.38;;
35648;SDS011;21768;48.562;13.414;2023-08-24T05:00:59;14.43;;;7.50;;
35648;SDS011;21768;48.562;13.414;2023-08-24T05:03:24;9.52;;;7.75;;
35648;SDS011;21768;48.562;13.414;2023-08-24T05:05:50;15.35;;;8.73;;
35648;SDS011;21768;48.562;13.414;2023-08-24T05:08:15;16.80;;;8.63;;
35648;SDS011;21768;48.562;13.414;2023-08-24T05:10:40;11.98;;;8.27;;
35648;SDS011;21768;48.562;13.414;2023-08-24T05:13:06;10.73;;;7.85;;
35648;SDS011;21768;48.562;13.414;2023-08-24T05:15:31;12.07;;;8.02;;
35648;SDS011;21768;48.562;13.414;2023-08-24T05:17:57;11.45;;;8.20;;
35648;SDS011;21768;48.562;13.414;2023-08-24T05:20:24;15.18;;;7.70;;
35648;SDS011;21768;48.562;13.414;2023-08-24T05:22:50;12.30;;;7.30;;
35648;SDS011;21768;48.562;13.414;2023-08-24T05:25:15;12.43;;;7.88;;
35648;SDS011;21768;48.562;13.414;2023-08-24T05:27:41;12.32;;;7.47;;
35648;SDS011;21768;48.562;13.414;2023-08-24T05:30:07;15.40;;;7.32;;
35648;SDS011;21768;48.562;13.414;2023-08-24T05:32:33;10.02;;;7.80;;
35648;SDS011;21768;48.562;13.414;2023-08-24T05:35:03;17.55;;;8.15;;
35648;SDS011;21768;48.562;13.414;2023-08-24T05:37:32;14.07;;;8.68;;
35648;SDS011;21768;48.562;13.414;2023-08-24T05:39:58;12.43;;;7.90;;
35648;SDS011;21768;48.562;13.414;2023-08-24T05:42:24;10.73;;;7.75;;
35648;SDS011;21768;48.562;13.414;2023-08-24T05:44:50;18.42;;;8.25;;
35648;SDS011;21768;48.562;13.414;2023-08-24T05:47:15;13.63;;;8.38;;
35648;SDS011;21768;48.562;13.414;2023-08-24T05:49:40;11.02;;;8.52;;
35648;SDS011;21768;48.562;13.414;2023-08-24T05:52:06;16.08;;;8.50;;
35648;SDS011;21768;48.562;13.414;2023-08-24T05:54:31;19.70;;;8.45;;
35648;SDS011;21768;48.562;13.414;2023-08-24T05:56:57;12.77;;;8.20;;
35648;SDS011;21768;48.562;13.414;2023-08-24T05:59:25;14.32;;;7.82;;
35648;SDS011;21768;48.562;13.414;2023-08-24T06:01:51;11.40;;;8.10;;
35648;SDS011;21768;48.562;13.414;2023-08-24T06:04:16;12.65;;;8.20;;
35648;SDS011;21768;48.562;13.414;2023-08-24T06:06:42;14.30;;;8.57;;
35648;SDS011;21768;48.562;13.414;2023-08-24T06:09:07;12.52;;;8.05;;
35648;SDS011;21768;48.562;13.414;2023-08-24T06:11:33;9.88;;;7.90;;
35648;SDS011;21768;48.562;13.414;2023-08-24T06:13:58;10.95;;;8.02;;
35648;SDS011;21768;48.562;13.414;2023-08-24T06:16:24;13.82;;;8.40;;
35648;SDS011;21768;48.562;13.414;2023-08-24T06:18:49;12.75;;;8.50;;
35648;SDS011;21768;48.562;13.414;2023-08-24T06:21:15;10.43;;;7.95;;
35648;SDS011;21768;48.562;13.414;2023-08-24T06:23:41;12.63;;;7.97;;
35648;SDS011;21768;48.562;13.414;2023-08-24T06:26:07;11.75;;;8.38;;
35648;SDS011;21768;48.562;13.414;2023-08-24T06:28:32;10.45;;;8.63;;
35648;SDS011;21768;48.562;13.414;2023-08-24T06:30:57;12.68;;;7.55;;
35648;SDS011;21768;48.562;13.414;2023-08-24T06:33:28;11.45;;;7.63;;
35648;SDS011;21768;48.562;13.414;2023-08-24T06:35:55;12.40;;;7.90;;
35648;SDS011;21768;48.562;13.414;2023-08-24T06:38:21;12.90;;;8.48;;
35648;SDS011;21768;48.562;13.414;2023-08-24T06:40:47;12.90;;;7.97;;
35648;SDS011;21768;48.562;13.414;2023-08-24T06:43:12;12.63;;;8.02;;
35648;SDS011;21768;48.562;13.414;2023-08-24T06:45:37;14.13;;;8.38;;
35648;SDS011;21768;48.562;13.414;2023-08-24T06:48:03;13.40;;;8.30;;
35648;SDS011;21768;48.562;13.414;2023-08-24T06:50:30;13.68;;;7.90;;
35648;SDS011;21768;48.562;13.414;2023-08-24T06:52:56;10.48;;;7.50;;
35648;SDS011;21768;48.562;13.414;2023-08-24T06:55:21;9.50;;;6.63;;
35648;SDS011;21768;48.562;13.414;2023-08-24T06:57:47;12.23;;;7.18;;
35648;SDS011;21768;48.562;13.414;2023-08-24T07:00:14;13.00;;;7.80;;
35648;SDS011;21768;48.562;13.414;2023-08-24T07:02:40;12.10;;;7.05;;
35648;SDS011;21768;48.562;13.414;2023-08-24T07:05:05;13.00;;;7.45;;
35648;SDS011;21768;48.562;13.414;2023-08-24T07:07:33;11.30;;;6.95;;
35648;SDS011;21768;48.562;13.414;2023-08-24T07:09:59;9.77;;;6.72;;
35648;SDS011;21768;48.562;13.414;2023-08-24T07:12:24;9.70;;;6.78;;
35648;SDS011;21768;48.562;13.414;2023-08-24T07:14:49;9.40;;;6.82;;
35648;SDS011;21768;48.562;13.414;2023-08-24T07:17:15;11.40;;;6.75;;
35648;SDS011;21768;48.562;13.414;2023-08-24T07:19:40;10.57;;;6.57;;
35648;SDS011;21768;48.562;13.414;2023-08-24T07:22:05;10.52;;;6.28;;
35648;SDS011;21768;48.562;13.414;2023-08-24T07:24:31;10.60;;;6.55;;
35648;SDS011;21768;48.562;13.414;2023-08-24T07:26:58;14.65;;;6.55;;
35648;SDS011;21768;48.562;13.414;2023-08-24T07:29:23;13.30;;;6.18;;
35648;SDS011;21768;48.562;13.414;2023-08-24T07:31:49;12.55;;;6.80;;
35648;SDS011;21768;48.562;13.414;2023-08-24T07:34:14;9.73;;;6.13;;
35648;SDS011;21768;48.562;13.414;2023-08-24T07:36:40;12.82;;;6.60;;
35648;SDS011;21768;48.562;13.414;2023-08-24T07:39:07;7.68;;;5.82;;
35648;SDS011;21768;48.562;13.414;2023-08-24T07:41:32;10.00;;;6.22;;
35648;SDS011;21768;48.562;13.414;2023-08-24T07:43:58;9.00;;;6.40;;
35648;SDS011;21768;48.562;13.414;2023-08-24T07:46:23;13.45;;;5.78;;
35648;SDS011;21768;48.562;13.414;2023-08-24T07:48:49;8.55;;;5.78;;
35648;SDS011;21768;48.562;13.414;2023-08-24T07:51:15;9.27;;;5.32;;
35648;SDS011;21768;48.562;13.414;2023-08-24T07:53:40;12.23;;;5.43;;
35648;SDS011;21768;48.562;13.414;2023-08-24T07:56:05;7.25;;;4.90;;
35648;SDS011;21768;48.562;13.414;2023-08-24T07:58:31;9.57;;;4.90;;
35648;SDS011;21768;48.562;13.414;2023-08-24T08:00:57;11.02;;;5.70;;
35648;SDS011;21768;48.562;13.414;2023-08-24T08:03:24;8.05;;;5.13;;
35648;SDS011;21768;48.562;13.414;2023-08-24T08:05:49;8.00;;;5.20;;
35648;SDS011;21768;48.562;13.414;2023-08-24T08:08:15;8.18;;;4.97;;
35648;SDS011;21768;48.562;13.414;2023-08-24T08:10:40;10.63;;;4.97;;
35648;SDS011;21768;48.562;13.414;2023-08-24T08:13:06;8.95;;;4.95;;
35648;SDS011;21768;48.562;13.414;2023-08-24T08:15:32;11.38;;;5.00;;
35648;SDS011;21768;48.562;13.414;2023-08-24T08:17:57;8.95;;;5.20;;
35648;SDS011;21768;48.562;13.414;2023-08-24T08:20:23;9.02;;;4.88;;
35648;SDS011;21768;48.562;13.414;2023-08-24T08:22:48;10.95;;;5.15;;
35648;SDS011;21768;48.562;13.414;2023-08-24T08:25:14;8.80;;;5.05;;
35648;SDS011;21768;48.562;13.414;2023-08-24T08:27:39;7.18;;;4.82;;
35648;SDS011;21768;48.562;13.414;2023-08-24T08:30:04;7.68;;;4.32;;
35648;SDS011;21768;48.562;13.414;2023-08-24T08:32:30;9.23;;;5.07;;
35648;SDS011;21768;48.562;13.414;2023-08-24T08:34:56;10.10;;;4.63;;
35648;SDS011;21768;48.562;13.414;2023-08-24T08:37:26;6.38;;;4.32;;
35648;SDS011;21768;48.562;13.414;2023-08-24T08:39:51;9.80;;;4.22;;
35648;SDS011;21768;48.562;13.414;2023-08-24T08:42:17;18.65;;;4.93;;
35648;SDS011;21768;48.562;13.414;2023-08-24T08:44:43;9.38;;;4.82;;
35648;SDS011;21768;48.562;13.414;2023-08-24T08:47:10;8.82;;;4.47;;
35648;SDS011;21768;48.562;13.414;2023-08-24T08:49:37;7.13;;;4.40;;
35648;SDS011;21768;48.562;13.414;2023-08-24T08:52:04;6.47;;;4.47;;
35648;SDS011;21768;48.562;13.414;2023-08-24T08:54:31;8.63;;;4.45;;
35648;SDS011;21768;48.562;13.414;2023-08-24T08:56:58;13.35;;;4.28;;
35648;SDS011;21768;48.562;13.414;2023-08-24T08:59:24;15.98;;;4.78;;
35648;SDS011;21768;48.562;13.414;2023-08-24T09:01:54;9.07;;;4.28;;
35648;SDS011;21768;48.562;13.414;2023-08-24T09:04:20;8.93;;;4.20;;
35648;SDS011;21768;48.562;13.414;2023-08-24T09:06:46;5.05;;;3.30;;
35648;SDS011;21768;48.562;13.414;2023-08-24T09:09:12;8.00;;;3.08;;
35648;SDS011;21768;48.562;13.414;2023-08-24T09:11:38;7.43;;;3.88;;
35648;SDS011;21768;48.562;13.414;2023-08-24T09:14:05;5.72;;;3.58;;
35648;SDS011;21768;48.562;13.414;2023-08-24T09:16:30;7.50;;;3.58;;
35648;SDS011;21768;48.562;13.414;2023-08-24T09:18:55;5.13;;;3.10;;
35648;SDS011;21768;48.562;13.414;2023-08-24T09:21:21;9.20;;;3.22;;
35648;SDS011;21768;48.562;13.414;2023-08-24T09:23:52;4.78;;;3.15;;
35648;SDS011;21768;48.562;13.414;2023-08-24T09:26:29;4.20;;;3.05;;
35648;SDS011;21768;48.562;13.414;2023-08-24T09:28:56;10.45;;;3.63;;
35648;SDS011;21768;48.562;13.414;2023-08-24T09:31:22;5.68;;;3.63;;
35648;SDS011;21768;48.562;13.414;2023-08-24T09:33:49;7.78;;;3.45;;
35648;SDS011;21768;48.562;13.414;2023-08-24T09:36:14;5.72;;;3.60;;
35648;SDS011;21768;48.562;13.414;2023-08-24T09:38:46;11.75;;;4.00;;
35648;SDS011;21768;48.562;13.414;2023-08-24T09:41:16;5.72;;;3.22;;
35648;SDS011;21768;48.562;13.414;2023-08-24T09:43:41;9.15;;;2.97;;
35648;SDS011;21768;48.562;13.414;2023-08-24T09:46:06;7.65;;;3.10;;
35648;SDS011;21768;48.562;13.414;2023-08-24T09:48:33;8.05;;;3.20;;
35648;SDS011;21768;48.562;13.414;2023-08-24T09:50:58;8.40;;;3.38;;
35648;SDS011;21768;48.562;13.414;2023-08-24T09:53:28;7.15;;;3.53;;
35648;SDS011;21768;48.562;13.414;2023-08-24T09:58:23;5.28;;;3.47;;
35648;SDS011;21768;48.562;13.414;2023-08-24T10:00:49;9.43;;;3.50;;
35648;SDS011;21768;48.562;13.414;2023-08-24T10:03:15;12.43;;;3.33;;
35648;SDS011;21768;48.562;13.414;2023-08-24T10:05:45;7.22;;;3.20;;
35648;SDS011;21768;48.562;13.414;2023-08-24T10:08:23;4.80;;;3.00;;
35648;SDS011;21768;48.562;13.414;2023-08-24T10:10:52;6.78;;;2.67;;
35648;SDS011;21768;48.562;13.414;2023-08-24T10:13:31;8.25;;;3.15;;
35648;SDS011;21768;48.562;13.414;2023-08-24T10:16:00;9.30;;;3.22;;
35648;SDS011;21768;48.562;13.414;2023-08-24T10:18:26;4.63;;;3.65;;
35648;SDS011;21768;48.562;13.414;2023-08-24T10:20:52;7.47;;;3.70;;
35648;SDS011;21768;48.562;13.414;2023-08-24T10:23:17;10.40;;;3.60;;
35648;SDS011;21768;48.562;13.414;2023-08-24T10:25:45;6.60;;;3.58;;
35648;SDS011;21768;48.562;13.414;2023-08-24T10:28:11;3.85;;;3.08;;
35648;SDS011;21768;48.562;13.414;2023-08-24T10:30:40;5.20;;;3.03;;
35648;SDS011;21768;48.562;13.414;2023-08-24T10:33:08;6.95;;;3.40;;
35648;SDS011;21768;48.562;13.414;2023-08-24T10:35:36;6.97;;;3.28;;
35648;SDS011;21768;48.562;13.414;2023-08-24T10:38:02;8.18;;;3.35;;
35648;SDS011;21768;48.562;13.414;2023-08-24T10:40:35;5.63;;;3.40;;
35648;SDS011;21768;48.562;13.414;2023-08-24T10:43:02;6.18;;;3.25;;
35648;SDS011;21768;48.562;13.414;2023-08-24T10:45:53;4.07;;;3.35;;
35648;SDS011;21768;48.562;13.414;2023-08-24T10:48:25;8.57;;;3.22;;
35648;SDS011;21768;48.562;13.414;2023-08-24T10:53:57;7.05;;;3.33;;
35648;SDS011;21768;48.562;13.414;2023-08-24T10:56:36;9.27;;;3.67;;
35648;SDS011;21768;48.562;13.414;2023-08-24T10:59:16;5.05;;;3.05;;
35648;SDS011;21768;48.562;13.414;2023-08-24T11:02:03;4.65;;;3.20;;
35648;SDS011;21768;48.562;13.414;2023-08-24T11:04:29;10.48;;;3.20;;
35648;SDS011;21768;48.562;13.414;2023-08-24T11:06:58;6.22;;;2.78;;
35648;SDS011;21768;48.562;13.414;2023-08-24T11:09:24;5.60;;;3.10;;
35648;SDS011;21768;48.562;13.414;2023-08-24T11:12:00;8.68;;;3.10;;
35648;SDS011;21768;48.562;13.414;2023-08-24T11:14:28;6.70;;;2.95;;
35648;SDS011;21768;48.562;13.414;2023-08-24T11:17:16;5.68;;;2.92;;
35648;SDS011;21768;48.562;13.414;2023-08-24T11:19:49;6.40;;;2.72;;
35648;SDS011;21768;48.562;13.414;2023-08-24T11:22:19;9.13;;;3.17;;
35648;SDS011;21768;48.562;13.414;2023-08-24T11:24:46;6.07;;;2.90;;
35648;SDS011;21768;48.562;13.414;2023-08-24T11:27:12;7.13;;;3.40;;
35648;SDS011;21768;48.562;13.414;2023-08-24T11:29:37;5.07;;;3.13;;
35648;SDS011;21768;48.562;13.414;2023-08-24T11:32:02;4.72;;;3.20;;
35648;SDS011;21768;48.562;13.414;2023-08-24T11:34:29;7.68;;;3.67;;
35648;SDS011;21768;48.562;13.414;2023-08-24T11:36:55;3.85;;;2.90;;
35648;SDS011;21768;48.562;13.414;2023-08-24T11:39:21;3.22;;;2.55;;
35648;SDS011;21768;48.562;13.414;2023-08-24T11:42:02;3.63;;;2.88;;
35648;SDS011;21768;48.562;13.414;2023-08-24T11:44:28;4.28;;;3.03;;
35648;SDS011;21768;48.562;13.414;2023-08-24T11:46:58;6.28;;;3.17;;
35648;SDS011;21768;48.562;13.414;2023-08-24T11:49:24;6.97;;;3.42;;
35648;SDS011;21768;48.562;13.414;2023-08-24T11:51:50;7.65;;;3.60;;
35648;SDS011;21768;48.562;13.414;2023-08-24T11:54:16;7.47;;;3.35;;
35648;SDS011;21768;48.562;13.414;2023-08-24T11:56:43;4.00;;;3.20;;
35648;SDS011;21768;48.562;13.414;2023-08-24T11:59:12;4.93;;;3.25;;
35648;SDS011;21768;48.562;13.414;2023-08-24T12:01:38;10.95;;;3.72;;
35648;SDS011;21768;48.562;13.414;2023-08-24T12:04:06;9.65;;;3.40;;
35648;SDS011;21768;48.562;13.414;2023-08-24T12:06:31;11.60;;;3.20;;
35648;SDS011;21768;48.562;13.414;2023-08-24T12:08:56;11.23;;;3.60;;
35648;SDS011;21768;48.562;13.414;2023-08-24T12:11:22;5.43;;;3.72;;
35648;SDS011;21768;48.562;13.414;2023-08-24T12:13:52;4.57;;;3.13;;
35648;SDS011;21768;48.562;13.414;2023-08-24T12:16:19;4.53;;;3.30;;
35648;SDS011;21768;48.562;13.414;2023-08-24T12:21:23;10.50;;;3.60;;
35648;SDS011;21768;48.562;13.414;2023-08-24T12:23:55;4.65;;;3.28;;
35648;SDS011;21768;48.562;13.414;2023-08-24T12:26:22;5.78;;;3.58;;
35648;SDS011;21768;48.562;13.414;2023-08-24T12:28:50;4.85;;;3.50;;
35648;SDS011;21768;48.562;13.414;2023-08-24T12:31:19;10.55;;;4.22;;
35648;SDS011;21768;48.562;13.414;2023-08-24T12:33:44;11.80;;;3.88;;
35648;SDS011;21768;48.562;13.414;2023-08-24T12:36:10;4.32;;;3.80;;
35648;SDS011;21768;48.562;13.414;2023-08-24T12:38:36;7.65;;;4.20;;
35648;SDS011;21768;48.562;13.414;2023-08-24T12:41:02;9.68;;;3.85;;
35648;SDS011;21768;48.562;13.414;2023-08-24T12:43:27;11.10;;;4.22;;
35648;SDS011;21768;48.562;13.414;2023-08-24T12:45:52;4.10;;;3.63;;
35648;SDS011;21768;48.562;13.414;2023-08-24T12:48:18;4.90;;;3.97;;
35648;SDS011;21768;48.562;13.414;2023-08-24T12:50:43;11.40;;;4.38;;
35648;SDS011;21768;48.562;13.414;2023-08-24T12:53:09;6.40;;;4.53;;
35648;SDS011;21768;48.562;13.414;2023-08-24T12:55:35;8.13;;;4.57;;
35648;SDS011;21768;48.562;13.414;2023-08-24T12:58:01;11.23;;;4.75;;
35648;SDS011;21768;48.562;13.414;2023-08-24T13:00:28;15.35;;;5.03;;
35648;SDS011;21768;48.562;13.414;2023-08-24T13:02:55;9.15;;;4.32;;
35648;SDS011;21768;48.562;13.414;2023-08-24T13:05:20;8.20;;;4.60;;
35648;SDS011;21768;48.562;13.414;2023-08-24T13:07:46;7.18;;;5.00;;
35648;SDS011;21768;48.562;13.414;2023-08-24T13:10:11;12.85;;;4.72;;
35648;SDS011;21768;48.562;13.414;2023-08-24T13:12:37;8.77;;;4.90;;
35648;SDS011;21768;48.562;13.414;2023-08-24T13:15:03;6.28;;;4.50;;
35648;SDS011;21768;48.562;13.414;2023-08-24T13:17:31;6.18;;;4.10;;
35648;SDS011;21768;48.562;13.414;2023-08-24T13:19:57;9.90;;;4.43;;
35648;SDS011;21768;48.562;13.414;2023-08-24T13:22:23;5.00;;;4.38;;
35648;SDS011;21768;48.562;13.414;2023-08-24T13:24:48;8.07;;;4.70;;
35648;SDS011;21768;48.562;13.414;2023-08-24T13:27:13;6.38;;;4.60;;
35648;SDS011;21768;48.562;13.414;2023-08-24T13:29:42;7.03;;;4.47;;
35648;SDS011;21768;48.562;13.414;2023-08-24T13:32:07;10.35;;;4.40;;
35648;SDS011;21768;48.562;13.414;2023-08-24T13:34:33;12.65;;;3.90;;
35648;SDS011;21768;48.562;13.414;2023-08-24T13:36:58;8.38;;;3.90;;
35648;SDS011;21768;48.562;13.414;2023-08-24T13:39:27;10.05;;;4.18;;
35648;SDS011;21768;48.562;13.414;2023-08-24T13:41:57;10.65;;;3.88;;
35648;SDS011;21768;48.562;13.414;2023-08-24T13:44:23;12.50;;;4.93;;
35648;SDS011;21768;48.562;13.414;2023-08-24T13:46:48;7.90;;;5.15;;
35648;SDS011;21768;48.562;13.414;2023-08-24T13:49:14;9.20;;;4.50;;
35648;SDS011;21768;48.562;13.414;2023-08-24T13:51:40;6.78;;;4.55;;
35648;SDS011;21768;48.562;13.414;2023-08-24T13:54:14;5.57;;;4.13;;
35648;SDS011;21768;48.562;13.414;2023-08-24T13:56:44;6.88;;;3.95;;
35648;SDS011;21768;48.562;13.414;2023-08-24T13:59:11;6.10;;;4.10;;
35648;SDS011;21768;48.562;13.414;2023-08-24T14:01:37;10.10;;;4.38;;
35648;SDS011;21768;48.562;13.414;2023-08-24T14:04:03;4.90;;;3.80;;
35648;SDS011;21768;48.562;13.414;2023-08-24T14:06:29;9.57;;;3.97;;
35648;SDS011;21768;48.562;13.414;2023-08-24T14:08:56;5.93;;;4.40;;
35648;SDS011;21768;48.562;13.414;2023-08-24T14:11:22;9.75;;;4.00;;
35648;SDS011;21768;48.562;13.414;2023-08-24T14:13:47;6.28;;;3.65;;
35648;SDS011;21768;48.562;13.414;2023-08-24T14:16:13;8.23;;;4.35;;
35648;SDS011;21768;48.562;13.414;2023-08-24T14:18:38;5.05;;;3.70;;
35648;SDS011;21768;48.562;13.414;2023-08-24T14:21:03;6.40;;;3.80;;
35648;SDS011;21768;48.562;13.414;2023-08-24T14:23:29;5.63;;;3.78;;
35648;SDS011;21768;48.562;13.414;2023-08-24T14:25:54;8.75;;;3.92;;
35648;SDS011;21768;48.562;13.414;2023-08-24T14:28:20;8.02;;;3.45;;
35648;SDS011;21768;48.562;13.414;2023-08-24T14:30:48;10.00;;;3.90;;
35648;SDS011;21768;48.562;13.414;2023-08-24T14:33:14;5.78;;;3.20;;